sensor_id;sensor_type;location;lat;lon;timestamp;temperature;humidity
3190;DHT22;1606;51.946;10.558;2023-02-15T00:01:48;4.40;99.90
3190;DHT22;1606;51.946;10.558;2023-02-15T00:04:20;4.40;99.90
3190;DHT22;1606;51.946;10.558;2023-02-15T00:06:48;4.30;99.90
3190;DHT22;1606;51.946;10.558;2023-02-15T00:09:16;4.40;99.90
3190;DHT22;1606;51.946;10.558;2023-02-15T00:11:44;4.50;99.90
3190;DHT22;1606;51.946;10.558;2023-02-15T00:14:18;4.40;99.90
3190;DHT22;1606;51.946;10.558;2023-02-15T00:16:47;4.50;99.90
3190;DHT22;1606;51.946;10.558;2023-02-15T00:19:18;4.40;99.90
3190;DHT22;1606;51.946;10.558;2023-02-15T00:21:47;4.40;99.90
3190;DHT22;1606;51.946;10.558;2023-02-15T00:24:17;4.40;99.90
3190;DHT22;1606;51.946;10.558;2023-02-15T00:26:45;4.30;99.90
3190;DHT22;1606;51.946;10.558;2023-02-15T00:29:18;4.30;99.90
3190;DHT22;1606;51.946;10.558;2023-02-15T00:31:46;4.20;99.90
3190;DHT22;1606;51.946;10.558;2023-02-15T00:34:18;4.20;99.90
3190;DHT22;1606;51.946;10.558;2023-02-15T00:36:46;4.00;99.90
3190;DHT22;1606;51.946;10.558;2023-02-15T00:39:15;4.00;99.90
3190;DHT22;1606;51.946;10.558;2023-02-15T00:41:43;4.10;99.90
3190;DHT22;1606;51.946;10.558;2023-02-15T00:44:12;4.10;99.90
3190;DHT22;1606;51.946;10.558;2023-02-15T00:46:40;4.10;99.90
3190;DHT22;1606;51.946;10.558;2023-02-15T00:49:08;4.10;99.90
3190;DHT22;1606;51.946;10.558;2023-02-15T00:51:37;3.90;99.90
3190;DHT22;1606;51.946;10.558;2023-02-15T00:54:06;3.70;99.90
3190;DHT22;1606;51.946;10.558;2023-02-15T00:56:33;3.80;99.90
3190;DHT22;1606;51.946;10.558;2023-02-15T00:59:01;3.90;99.90
3190;DHT22;1606;51.946;10.558;2023-02-15T01:01:29;3.90;99.90
3190;DHT22;1606;51.946;10.558;2023-02-15T01:03:57;4.00;99.90
3190;DHT22;1606;51.946;10.558;2023-02-15T01:06:25;4.10;99.90
3190;DHT22;1606;51.946;10.558;2023-02-15T01:08:54;4.00;99.90
3190;DHT22;1606;51.946;10.558;2023-02-15T01:11:22;4.00;99.90
3190;DHT22;1606;51.946;10.558;2023-02-15T01:13:52;4.00;99.90
3190;DHT22;1606;51.946;10.558;2023-02-15T01:16:20;3.80;99.90
3190;DHT22;1606;51.946;10.558;2023-02-15T01:18:49;3.90;99.90
3190;DHT22;1606;51.946;10.558;2023-02-15T01:21:19;4.10;99.90
3190;DHT22;1606;51.946;10.558;2023-02-15T01:23:47;4.20;99.90
3190;DHT22;1606;51.946;10.558;2023-02-15T01:26:17;4.00;99.90
3190;DHT22;1606;51.946;10.558;2023-02-15T01:28:45;4.00;99.90
3190;DHT22;1606;51.946;10.558;2023-02-15T01:31:16;3.80;99.90
3190;DHT22;1606;51.946;10.558;2023-02-15T01:33:46;3.70;99.90
3190;DHT22;1606;51.946;10.558;2023-02-15T01:36:14;3.70;99.90
3190;DHT22;1606;51.946;10.558;2023-02-15T01:38:43;3.70;99.90
3190;DHT22;1606;51.946;10.558;2023-02-15T01:41:12;3.70;99.90
3190;DHT22;1606;51.946;10.558;2023-02-15T01:43:53;3.70;99.90
3190;DHT22;1606;51.946;10.558;2023-02-15T01:46:25;3.80;99.90
3190;DHT22;1606;51.946;10.558;2023-02-15T01:48:59;3.70;99.90
3190;DHT22;1606;51.946;10.558;2023-02-15T01:51:29;3.60;99.90
3190;DHT22;1606;51.946;10.558;2023-02-15T01:54:02;3.70;99.90
3190;DHT22;1606;51.946;10.558;2023-02-15T01:56:33;3.70;99.90
3190;DHT22;1606;51.946;10.558;2023-02-15T01:59:08;3.70;99.90
3190;DHT22;1606;51.946;10.558;2023-02-15T02:01:37;3.70;99.90
3190;DHT22;1606;51.946;10.558;2023-02-15T02:04:10;3.70;99.90
3190;DHT22;1606;51.946;10.558;2023-02-15T02:06:41;3.60;99.90
3190;DHT22;1606;51.946;10.558;2023-02-15T02:09:09;3.70;99.90
3190;DHT22;1606;51.946;10.558;2023-02-15T02:11:39;3.60;99.90
3190;DHT22;1606;51.946;10.558;2023-02-15T02:14:09;3.60;99.90
3190;DHT22;1606;51.946;10.558;2023-02-15T02:16:43;3.60;99.90
3190;DHT22;1606;51.946;10.558;2023-02-15T02:19:40;3.50;99.90
3190;DHT22;1606;51.946;10.558;2023-02-15T02:22:56;3.60;99.90
3190;DHT22;1606;51.946;10.558;2023-02-15T02:26:15;3.60;99.90
3190;DHT22;1606;51.946;10.558;2023-02-15T02:29:16;3.50;99.90
3190;DHT22;1606;51.946;10.558;2023-02-15T02:32:14;3.40;99.90
3190;DHT22;1606;51.946;10.558;2023-02-15T02:34:51;3.20;99.90
3190;DHT22;1606;51.946;10.558;2023-02-15T02:37:24;3.20;99.90
3190;DHT22;1606;51.946;10.558;2023-02-15T02:40:01;3.40;99.90
3190;DHT22;1606;51.946;10.558;2023-02-15T02:42:35;3.40;99.90
3190;DHT22;1606;51.946;10.558;2023-02-15T02:45:07;3.50;99.90
3190;DHT22;1606;51.946;10.558;2023-02-15T02:47:39;3.50;99.90
3190;DHT22;1606;51.946;10.558;2023-02-15T02:50:14;3.50;99.90
3190;DHT22;1606;51.946;10.558;2023-02-15T02:52:43;3.60;99.90
3190;DHT22;1606;51.946;10.558;2023-02-15T02:55:16;3.30;99.90
3190;DHT22;1606;51.946;10.558;2023-02-15T02:57:49;3.30;99.90
3190;DHT22;1606;51.946;10.558;2023-02-15T03:00:19;3.40;99.90
3190;DHT22;1606;51.946;10.558;2023-02-15T03:02:51;3.50;99.90
3190;DHT22;1606;51.946;10.558;2023-02-15T03:05:26;3.50;99.90
3190;DHT22;1606;51.946;10.558;2023-02-15T03:07:55;3.50;99.90
3190;DHT22;1606;51.946;10.558;2023-02-15T03:10:24;3.40;99.90
3190;DHT22;1606;51.946;10.558;2023-02-15T03:12:53;3.40;99.90
3190;DHT22;1606;51.946;10.558;2023-02-15T03:15:25;3.30;99.90
3190;DHT22;1606;51.946;10.558;2023-02-15T03:18:16;3.30;99.90
3190;DHT22;1606;51.946;10.558;2023-02-15T03:20:47;3.20;99.90
3190;DHT22;1606;51.946;10.558;2023-02-15T03:23:17;3.20;99.90
3190;DHT22;1606;51.946;10.558;2023-02-15T03:25:51;3.20;99.90
3190;DHT22;1606;51.946;10.558;2023-02-15T03:28:23;3.30;99.90
3190;DHT22;1606;51.946;10.558;2023-02-15T03:30:56;3.30;99.90
3190;DHT22;1606;51.946;10.558;2023-02-15T03:33:26;3.30;99.90
3190;DHT22;1606;51.946;10.558;2023-02-15T03:36:02;3.20;99.90
3190;DHT22;1606;51.946;10.558;2023-02-15T03:38:36;3.20;99.90
3190;DHT22;1606;51.946;10.558;2023-02-15T03:41:07;3.30;99.90
3190;DHT22;1606;51.946;10.558;2023-02-15T03:43:44;3.30;99.90
3190;DHT22;1606;51.946;10.558;2023-02-15T03:46:17;3.30;99.90
3190;DHT22;1606;51.946;10.558;2023-02-15T03:48:51;3.20;99.90
3190;DHT22;1606;51.946;10.558;2023-02-15T03:51:25;3.20;99.90
3190;DHT22;1606;51.946;10.558;2023-02-15T03:54:05;3.20;99.90
3190;DHT22;1606;51.946;10.558;2023-02-15T03:56:35;3.20;99.90
3190;DHT22;1606;51.946;10.558;2023-02-15T03:59:04;3.10;99.90
3190;DHT22;1606;51.946;10.558;2023-02-15T04:01:58;3.20;99.90
3190;DHT22;1606;51.946;10.558;2023-02-15T04:04:34;3.20;99.90
3190;DHT22;1606;51.946;10.558;2023-02-15T04:07:05;3.10;99.90
3190;DHT22;1606;51.946;10.558;2023-02-15T04:09:33;3.10;99.90
3190;DHT22;1606;51.946;10.558;2023-02-15T04:12:30;3.00;99.90
3190;DHT22;1606;51.946;10.558;2023-02-15T04:14:58;3.00;99.90
3190;DHT22;1606;51.946;10.558;2023-02-15T04:17:44;3.00;99.90
3190;DHT22;1606;51.946;10.558;2023-02-15T04:20:11;3.10;99.90
3190;DHT22;1606;51.946;10.558;2023-02-15T04:22:58;3.20;99.90
3190;DHT22;1606;51.946;10.558;2023-02-15T04:25:43;3.20;99.90
3190;DHT22;1606;51.946;10.558;2023-02-15T04:28:11;3.20;99.90
3190;DHT22;1606;51.946;10.558;2023-02-15T04:30:39;3.10;99.90
3190;DHT22;1606;51.946;10.558;2023-02-15T04:33:07;3.00;99.90
3190;DHT22;1606;51.946;10.558;2023-02-15T04:35:34;3.00;99.90
3190;DHT22;1606;51.946;10.558;2023-02-15T04:38:03;3.00;99.90
3190;DHT22;1606;51.946;10.558;2023-02-15T04:40:31;3.10;99.90
3190;DHT22;1606;51.946;10.558;2023-02-15T04:42:59;3.10;99.90
3190;DHT22;1606;51.946;10.558;2023-02-15T04:45:27;3.10;99.90
3190;DHT22;1606;51.946;10.558;2023-02-15T04:47:55;3.10;99.90
3190;DHT22;1606;51.946;10.558;2023-02-15T04:50:22;3.10;99.90
3190;DHT22;1606;51.946;10.558;2023-02-15T04:52:50;2.80;99.90
3190;DHT22;1606;51.946;10.558;2023-02-15T04:55:19;3.00;99.90
3190;DHT22;1606;51.946;10.558;2023-02-15T04:57:47;3.00;99.90
3190;DHT22;1606;51.946;10.558;2023-02-15T05:00:15;3.00;99.90
3190;DHT22;1606;51.946;10.558;2023-02-15T05:02:43;3.00;99.90
3190;DHT22;1606;51.946;10.558;2023-02-15T05:05:11;3.00;99.90
3190;DHT22;1606;51.946;10.558;2023-02-15T05:07:41;3.10;99.90
3190;DHT22;1606;51.946;10.558;2023-02-15T05:10:09;3.00;99.90
3190;DHT22;1606;51.946;10.558;2023-02-15T05:12:38;3.00;99.90
3190;DHT22;1606;51.946;10.558;2023-02-15T05:15:07;3.00;99.90
3190;DHT22;1606;51.946;10.558;2023-02-15T05:17:36;3.10;99.90
3190;DHT22;1606;51.946;10.558;2023-02-15T05:20:05;3.10;99.90
3190;DHT22;1606;51.946;10.558;2023-02-15T05:22:33;3.20;99.90
3190;DHT22;1606;51.946;10.558;2023-02-15T05:25:01;3.20;99.90
3190;DHT22;1606;51.946;10.558;2023-02-15T05:27:47;3.20;99.90
3190;DHT22;1606;51.946;10.558;2023-02-15T05:30:33;3.10;99.90
3190;DHT22;1606;51.946;10.558;2023-02-15T05:33:01;3.10;99.90
3190;DHT22;1606;51.946;10.558;2023-02-15T05:35:29;3.00;99.90
3190;DHT22;1606;51.946;10.558;2023-02-15T05:37:56;3.00;99.90
3190;DHT22;1606;51.946;10.558;2023-02-15T05:40:24;3.00;99.90
3190;DHT22;1606;51.946;10.558;2023-02-15T05:42:53;3.10;99.90
3190;DHT22;1606;51.946;10.558;2023-02-15T05:45:21;3.20;99.90
3190;DHT22;1606;51.946;10.558;2023-02-15T05:47:49;3.10;99.90
3190;DHT22;1606;51.946;10.558;2023-02-15T05:50:17;3.10;99.90
3190;DHT22;1606;51.946;10.558;2023-02-15T05:52:45;3.10;99.90
3190;DHT22;1606;51.946;10.558;2023-02-15T05:55:12;3.10;99.90
3190;DHT22;1606;51.946;10.558;2023-02-15T05:57:40;3.10;99.90
3190;DHT22;1606;51.946;10.558;2023-02-15T06:00:11;2.90;99.90
3190;DHT22;1606;51.946;10.558;2023-02-15T06:02:40;2.90;99.90
3190;DHT22;1606;51.946;10.558;2023-02-15T06:05:08;2.80;99.90
3190;DHT22;1606;51.946;10.558;2023-02-15T06:07:36;2.70;99.90
3190;DHT22;1606;51.946;10.558;2023-02-15T06:10:05;2.60;99.90
3190;DHT22;1606;51.946;10.558;2023-02-15T06:12:33;2.60;99.90
3190;DHT22;1606;51.946;10.558;2023-02-15T06:15:01;2.80;99.90
3190;DHT22;1606;51.946;10.558;2023-02-15T06:17:30;2.90;99.90
3190;DHT22;1606;51.946;10.558;2023-02-15T06:19:58;2.90;99.90
3190;DHT22;1606;51.946;10.558;2023-02-15T06:22:25;2.70;99.90
3190;DHT22;1606;51.946;10.558;2023-02-15T06:24:53;2.80;99.90
3190;DHT22;1606;51.946;10.558;2023-02-15T06:27:21;2.80;99.90
3190;DHT22;1606;51.946;10.558;2023-02-15T06:29:48;2.80;99.90
3190;DHT22;1606;51.946;10.558;2023-02-15T06:32:16;2.90;99.90
3190;DHT22;1606;51.946;10.558;2023-02-15T06:34:45;2.90;99.90
3190;DHT22;1606;51.946;10.558;2023-02-15T06:37:14;2.90;99.90
3190;DHT22;1606;51.946;10.558;2023-02-15T06:39:42;2.80;99.90
3190;DHT22;1606;51.946;10.558;2023-02-15T06:42:10;3.00;99.90
3190;DHT22;1606;51.946;10.558;2023-02-15T06:44:38;3.00;99.90
3190;DHT22;1606;51.946;10.558;2023-02-15T06:47:06;2.90;99.90
3190;DHT22;1606;51.946;10.558;2023-02-15T06:49:33;2.90;99.90
3190;DHT22;1606;51.946;10.558;2023-02-15T06:52:03;2.90;99.90
3190;DHT22;1606;51.946;10.558;2023-02-15T06:54:31;2.90;99.90
3190;DHT22;1606;51.946;10.558;2023-02-15T06:56:59;2.90;99.90
3190;DHT22;1606;51.946;10.558;2023-02-15T06:59:27;2.80;99.90
3190;DHT22;1606;51.946;10.558;2023-02-15T07:01:54;2.70;99.90
3190;DHT22;1606;51.946;10.558;2023-02-15T07:04:22;2.80;99.90
3190;DHT22;1606;51.946;10.558;2023-02-15T07:06:50;2.90;99.90
3190;DHT22;1606;51.946;10.558;2023-02-15T07:09:21;2.90;99.90
3190;DHT22;1606;51.946;10.558;2023-02-15T07:11:49;2.90;99.90
3190;DHT22;1606;51.946;10.558;2023-02-15T07:14:34;2.90;99.90
3190;DHT22;1606;51.946;10.558;2023-02-15T07:17:02;2.90;99.90
3190;DHT22;1606;51.946;10.558;2023-02-15T07:19:30;2.80;99.90
3190;DHT22;1606;51.946;10.558;2023-02-15T07:21:58;2.90;99.90
3190;DHT22;1606;51.946;10.558;2023-02-15T07:24:27;2.90;99.90
3190;DHT22;1606;51.946;10.558;2023-02-15T07:26:55;2.90;99.90
3190;DHT22;1606;51.946;10.558;2023-02-15T07:29:24;3.10;99.90
3190;DHT22;1606;51.946;10.558;2023-02-15T07:31:51;3.00;99.90
3190;DHT22;1606;51.946;10.558;2023-02-15T07:34:19;2.80;99.90
3190;DHT22;1606;51.946;10.558;2023-02-15T07:36:47;2.70;99.90
3190;DHT22;1606;51.946;10.558;2023-02-15T07:39:17;2.70;99.90
3190;DHT22;1606;51.946;10.558;2023-02-15T07:41:46;2.80;99.90
3190;DHT22;1606;51.946;10.558;2023-02-15T07:44:14;2.90;99.90
3190;DHT22;1606;51.946;10.558;2023-02-15T07:46:42;3.00;99.90
3190;DHT22;1606;51.946;10.558;2023-02-15T07:49:10;2.90;99.90
3190;DHT22;1606;51.946;10.558;2023-02-15T07:51:38;2.90;99.90
3190;DHT22;1606;51.946;10.558;2023-02-15T07:54:07;2.90;99.90
3190;DHT22;1606;51.946;10.558;2023-02-15T07:56:35;3.00;99.90
3190;DHT22;1606;51.946;10.558;2023-02-15T07:59:04;3.00;99.90
3190;DHT22;1606;51.946;10.558;2023-02-15T08:01:33;3.10;99.90
3190;DHT22;1606;51.946;10.558;2023-02-15T08:04:02;3.10;99.90
3190;DHT22;1606;51.946;10.558;2023-02-15T08:06:32;3.10;99.90
3190;DHT22;1606;51.946;10.558;2023-02-15T08:09:03;3.10;99.90
3190;DHT22;1606;51.946;10.558;2023-02-15T08:11:32;3.20;99.90
3190;DHT22;1606;51.946;10.558;2023-02-15T08:14:06;3.20;99.90
3190;DHT22;1606;51.946;10.558;2023-02-15T08:16:36;3.10;99.90
3190;DHT22;1606;51.946;10.558;2023-02-15T08:19:06;3.20;99.90
3190;DHT22;1606;51.946;10.558;2023-02-15T08:21:37;3.30;99.90
3190;DHT22;1606;51.946;10.558;2023-02-15T08:24:07;3.40;99.90
3190;DHT22;1606;51.946;10.558;2023-02-15T08:26:35;3.50;99.90
3190;DHT22;1606;51.946;10.558;2023-02-15T08:29:09;3.60;99.90
3190;DHT22;1606;51.946;10.558;2023-02-15T08:31:37;3.60;99.90
3190;DHT22;1606;51.946;10.558;2023-02-15T08:34:08;3.70;99.90
3190;DHT22;1606;51.946;10.558;2023-02-15T08:36:37;3.90;99.90
3190;DHT22;1606;51.946;10.558;2023-02-15T08:39:06;4.10;99.90
3190;DHT22;1606;51.946;10.558;2023-02-15T08:41:36;4.40;99.90
3190;DHT22;1606;51.946;10.558;2023-02-15T08:44:06;4.50;99.90
3190;DHT22;1606;51.946;10.558;2023-02-15T08:46:37;4.60;99.90
3190;DHT22;1606;51.946;10.558;2023-02-15T08:49:05;4.60;99.90
3190;DHT22;1606;51.946;10.558;2023-02-15T08:51:35;4.50;99.90
3190;DHT22;1606;51.946;10.558;2023-02-15T08:54:04;4.60;99.90
3190;DHT22;1606;51.946;10.558;2023-02-15T08:56:34;4.60;99.90
3190;DHT22;1606;51.946;10.558;2023-02-15T08:59:03;4.70;99.90
3190;DHT22;1606;51.946;10.558;2023-02-15T09:01:34;4.80;99.90
3190;DHT22;1606;51.946;10.558;2023-02-15T09:04:05;4.90;99.90
3190;DHT22;1606;51.946;10.558;2023-02-15T09:06:35;5.00;99.90
3190;DHT22;1606;51.946;10.558;2023-02-15T09:09:04;5.20;99.90
3190;DHT22;1606;51.946;10.558;2023-02-15T09:11:34;5.40;99.90
3190;DHT22;1606;51.946;10.558;2023-02-15T09:14:04;5.70;99.90
3190;DHT22;1606;51.946;10.558;2023-02-15T09:16:37;5.90;99.90
3190;DHT22;1606;51.946;10.558;2023-02-15T09:19:06;5.80;99.90
3190;DHT22;1606;51.946;10.558;2023-02-15T09:21:36;5.80;99.90
3190;DHT22;1606;51.946;10.558;2023-02-15T09:24:06;5.80;99.90
3190;DHT22;1606;51.946;10.558;2023-02-15T09:26:36;5.90;99.90
3190;DHT22;1606;51.946;10.558;2023-02-15T09:29:04;6.00;99.90
3190;DHT22;1606;51.946;10.558;2023-02-15T09:31:33;6.40;99.90
3190;DHT22;1606;51.946;10.558;2023-02-15T09:34:03;6.70;99.90
3190;DHT22;1606;51.946;10.558;2023-02-15T09:36:32;6.90;99.90
3190;DHT22;1606;51.946;10.558;2023-02-15T09:39:04;7.00;99.90
3190;DHT22;1606;51.946;10.558;2023-02-15T09:41:48;7.10;99.90
3190;DHT22;1606;51.946;10.558;2023-02-15T09:44:27;7.10;99.90
3190;DHT22;1606;51.946;10.558;2023-02-15T09:47:12;7.20;99.90
3190;DHT22;1606;51.946;10.558;2023-02-15T09:49:49;7.40;99.90
3190;DHT22;1606;51.946;10.558;2023-02-15T09:52:33;7.30;99.90
3190;DHT22;1606;51.946;10.558;2023-02-15T09:55:14;7.50;99.90
3190;DHT22;1606;51.946;10.558;2023-02-15T09:57:52;7.70;99.90
3190;DHT22;1606;51.946;10.558;2023-02-15T10:00:26;7.70;99.90
3190;DHT22;1606;51.946;10.558;2023-02-15T10:03:09;7.70;99.90
3190;DHT22;1606;51.946;10.558;2023-02-15T10:05:50;7.70;99.90
3190;DHT22;1606;51.946;10.558;2023-02-15T10:11:44;7.80;99.90
3190;DHT22;1606;51.946;10.558;2023-02-15T10:14:49;7.80;99.90
3190;DHT22;1606;51.946;10.558;2023-02-15T10:17:31;8.00;99.90
3190;DHT22;1606;51.946;10.558;2023-02-15T10:20:15;8.20;99.90
3190;DHT22;1606;51.946;10.558;2023-02-15T10:22:59;8.40;99.90
3190;DHT22;1606;51.946;10.558;2023-02-15T10:25:38;8.50;99.90
3190;DHT22;1606;51.946;10.558;2023-02-15T10:28:11;8.70;99.90
3190;DHT22;1606;51.946;10.558;2023-02-15T10:30:46;8.90;99.90
3190;DHT22;1606;51.946;10.558;2023-02-15T10:33:31;8.90;99.90
3190;DHT22;1606;51.946;10.558;2023-02-15T10:36:11;9.00;99.90
3190;DHT22;1606;51.946;10.558;2023-02-15T10:38:48;9.20;99.90
3190;DHT22;1606;51.946;10.558;2023-02-15T10:41:26;9.00;99.90
3190;DHT22;1606;51.946;10.558;2023-02-15T10:44:10;9.00;99.90
3190;DHT22;1606;51.946;10.558;2023-02-15T10:46:57;9.20;99.90
3190;DHT22;1606;51.946;10.558;2023-02-15T10:49:44;9.40;99.90
3190;DHT22;1606;51.946;10.558;2023-02-15T10:52:25;9.80;99.90
3190;DHT22;1606;51.946;10.558;2023-02-15T10:55:06;10.10;99.90
3190;DHT22;1606;51.946;10.558;2023-02-15T10:57:43;10.10;99.90
3190;DHT22;1606;51.946;10.558;2023-02-15T11:00:19;10.20;99.90
3190;DHT22;1606;51.946;10.558;2023-02-15T11:03:05;10.20;99.90
3190;DHT22;1606;51.946;10.558;2023-02-15T11:05:42;10.40;99.90
3190;DHT22;1606;51.946;10.558;2023-02-15T11:08:16;10.60;99.90
3190;DHT22;1606;51.946;10.558;2023-02-15T11:10:49;10.60;99.90
3190;DHT22;1606;51.946;10.558;2023-02-15T11:13:22;10.80;99.90
3190;DHT22;1606;51.946;10.558;2023-02-15T11:15:54;11.00;99.90
3190;DHT22;1606;51.946;10.558;2023-02-15T11:18:28;11.00;99.90
3190;DHT22;1606;51.946;10.558;2023-02-15T11:21:01;11.30;99.90
3190;DHT22;1606;51.946;10.558;2023-02-15T11:23:32;11.60;99.90
3190;DHT22;1606;51.946;10.558;2023-02-15T11:26:08;12.00;99.90
3190;DHT22;1606;51.946;10.558;2023-02-15T11:28:41;12.30;99.90
3190;DHT22;1606;51.946;10.558;2023-02-15T11:31:14;12.60;99.90
3190;DHT22;1606;51.946;10.558;2023-02-15T11:33:46;12.90;99.90
3190;DHT22;1606;51.946;10.558;2023-02-15T11:36:19;13.10;99.90
3190;DHT22;1606;51.946;10.558;2023-02-15T11:38:52;13.40;99.90
3190;DHT22;1606;51.946;10.558;2023-02-15T11:41:25;13.40;99.90
3190;DHT22;1606;51.946;10.558;2023-02-15T11:43:57;13.50;99.90
3190;DHT22;1606;51.946;10.558;2023-02-15T11:46:27;13.50;99.90
3190;DHT22;1606;51.946;10.558;2023-02-15T11:48:55;13.40;99.90
3190;DHT22;1606;51.946;10.558;2023-02-15T11:51:25;13.60;99.90
3190;DHT22;1606;51.946;10.558;2023-02-15T11:53:56;13.70;99.90
3190;DHT22;1606;51.946;10.558;2023-02-15T11:56:25;13.60;99.90
3190;DHT22;1606;51.946;10.558;2023-02-15T11:58:56;13.50;99.90
3190;DHT22;1606;51.946;10.558;2023-02-15T12:01:30;13.50;99.90
3190;DHT22;1606;51.946;10.558;2023-02-15T12:04:04;13.50;99.90
3190;DHT22;1606;51.946;10.558;2023-02-15T12:06:34;13.60;99.90
3190;DHT22;1606;51.946;10.558;2023-02-15T12:09:10;13.80;99.90
3190;DHT22;1606;51.946;10.558;2023-02-15T12:11:42;14.00;99.90
3190;DHT22;1606;51.946;10.558;2023-02-15T12:14:11;14.30;99.90
3190;DHT22;1606;51.946;10.558;2023-02-15T12:16:44;14.50;99.90
3190;DHT22;1606;51.946;10.558;2023-02-15T12:19:28;14.60;99.90
3190;DHT22;1606;51.946;10.558;2023-02-15T12:21:58;15.10;99.90
3190;DHT22;1606;51.946;10.558;2023-02-15T12:24:28;15.00;99.90
3190;DHT22;1606;51.946;10.558;2023-02-15T12:27:01;15.40;99.40
3190;DHT22;1606;51.946;10.558;2023-02-15T12:29:30;15.10;99.90
3190;DHT22;1606;51.946;10.558;2023-02-15T12:32:03;15.10;99.90
3190;DHT22;1606;51.946;10.558;2023-02-15T12:34:37;14.90;99.90
3190;DHT22;1606;51.946;10.558;2023-02-15T12:37:16;15.10;99.80
3190;DHT22;1606;51.946;10.558;2023-02-15T12:39:51;14.90;99.90
3190;DHT22;1606;51.946;10.558;2023-02-15T12:42:21;15.10;99.90
3190;DHT22;1606;51.946;10.558;2023-02-15T12:44:56;15.20;99.90
3190;DHT22;1606;51.946;10.558;2023-02-15T12:47:25;15.10;99.80
3190;DHT22;1606;51.946;10.558;2023-02-15T12:50:11;15.00;99.90
3190;DHT22;1606;51.946;10.558;2023-02-15T12:52:45;15.30;99.90
3190;DHT22;1606;51.946;10.558;2023-02-15T12:55:23;15.20;98.80
3190;DHT22;1606;51.946;10.558;2023-02-15T12:58:07;14.90;99.20
3190;DHT22;1606;51.946;10.558;2023-02-15T13:00:35;14.70;99.90
3190;DHT22;1606;51.946;10.558;2023-02-15T13:03:03;14.60;99.30
3190;DHT22;1606;51.946;10.558;2023-02-15T13:05:35;14.50;98.50
3190;DHT22;1606;51.946;10.558;2023-02-15T13:08:10;14.40;99.20
3190;DHT22;1606;51.946;10.558;2023-02-15T13:10:42;14.80;99.80
3190;DHT22;1606;51.946;10.558;2023-02-15T13:13:17;15.10;98.90
3190;DHT22;1606;51.946;10.558;2023-02-15T13:15:50;15.20;98.70
3190;DHT22;1606;51.946;10.558;2023-02-15T13:18:27;15.30;97.70
3190;DHT22;1606;51.946;10.558;2023-02-15T13:20:56;15.40;98.00
3190;DHT22;1606;51.946;10.558;2023-02-15T13:23:27;15.50;98.10
3190;DHT22;1606;51.946;10.558;2023-02-15T13:25:57;15.60;97.80
3190;DHT22;1606;51.946;10.558;2023-02-15T13:28:33;15.50;97.50
3190;DHT22;1606;51.946;10.558;2023-02-15T13:31:12;15.50;98.10
3190;DHT22;1606;51.946;10.558;2023-02-15T13:33:42;15.60;97.80
3190;DHT22;1606;51.946;10.558;2023-02-15T13:36:15;15.60;97.30
3190;DHT22;1606;51.946;10.558;2023-02-15T13:38:51;15.60;96.30
3190;DHT22;1606;51.946;10.558;2023-02-15T13:41:27;15.80;96.20
3190;DHT22;1606;51.946;10.558;2023-02-15T13:44:23;15.70;95.30
3190;DHT22;1606;51.946;10.558;2023-02-15T13:47:02;15.30;95.80
3190;DHT22;1606;51.946;10.558;2023-02-15T13:49:42;15.30;96.30
3190;DHT22;1606;51.946;10.558;2023-02-15T13:52:19;15.10;96.20
3190;DHT22;1606;51.946;10.558;2023-02-15T13:55:03;15.10;96.50
3190;DHT22;1606;51.946;10.558;2023-02-15T13:57:47;15.30;96.70
3190;DHT22;1606;51.946;10.558;2023-02-15T14:00:25;15.30;96.90
3190;DHT22;1606;51.946;10.558;2023-02-15T14:06:10;14.80;98.00
3190;DHT22;1606;51.946;10.558;2023-02-15T14:08:51;14.50;97.70
3190;DHT22;1606;51.946;10.558;2023-02-15T14:11:29;14.30;99.00
3190;DHT22;1606;51.946;10.558;2023-02-15T14:14:14;14.10;98.10
3190;DHT22;1606;51.946;10.558;2023-02-15T14:16:51;14.00;98.20
3190;DHT22;1606;51.946;10.558;2023-02-15T14:19:37;13.80;98.20
3190;DHT22;1606;51.946;10.558;2023-02-15T14:22:13;14.00;98.40
3190;DHT22;1606;51.946;10.558;2023-02-15T14:24:46;13.90;97.60
3190;DHT22;1606;51.946;10.558;2023-02-15T14:27:22;14.10;97.70
3190;DHT22;1606;51.946;10.558;2023-02-15T14:29:56;14.00;97.40
3190;DHT22;1606;51.946;10.558;2023-02-15T14:32:32;14.00;97.40
3190;DHT22;1606;51.946;10.558;2023-02-15T14:35:03;14.10;97.50
3190;DHT22;1606;51.946;10.558;2023-02-15T14:37:38;14.20;97.20
3190;DHT22;1606;51.946;10.558;2023-02-15T14:40:16;14.40;96.80
3190;DHT22;1606;51.946;10.558;2023-02-15T14:43:08;14.40;96.50
3190;DHT22;1606;51.946;10.558;2023-02-15T14:45:46;14.30;96.20
3190;DHT22;1606;51.946;10.558;2023-02-15T14:48:21;14.30;96.30
3190;DHT22;1606;51.946;10.558;2023-02-15T14:50:51;14.40;95.90
3190;DHT22;1606;51.946;10.558;2023-02-15T14:53:46;14.40;95.80
3190;DHT22;1606;51.946;10.558;2023-02-15T14:56:23;14.40;96.10
3190;DHT22;1606;51.946;10.558;2023-02-15T14:59:12;14.60;95.80
3190;DHT22;1606;51.946;10.558;2023-02-15T15:01:41;14.50;95.50
3190;DHT22;1606;51.946;10.558;2023-02-15T15:04:14;14.40;95.50
3190;DHT22;1606;51.946;10.558;2023-02-15T15:06:59;14.30;95.80
3190;DHT22;1606;51.946;10.558;2023-02-15T15:09:29;14.40;95.90
3190;DHT22;1606;51.946;10.558;2023-02-15T15:12:14;14.30;95.80
3190;DHT22;1606;51.946;10.558;2023-02-15T15:14:43;14.20;96.10
3190;DHT22;1606;51.946;10.558;2023-02-15T15:20:14;14.10;96.50
3190;DHT22;1606;51.946;10.558;2023-02-15T15:22:43;14.00;97.00
3190;DHT22;1606;51.946;10.558;2023-02-15T15:27:55;13.90;96.80
3190;DHT22;1606;51.946;10.558;2023-02-15T15:33:59;13.90;96.80
3190;DHT22;1606;51.946;10.558;2023-02-15T15:37:24;13.90;96.80
3190;DHT22;1606;51.946;10.558;2023-02-15T15:40:39;13.70;97.50
3190;DHT22;1606;51.946;10.558;2023-02-15T15:46:13;13.50;97.60
3190;DHT22;1606;51.946;10.558;2023-02-15T15:48:44;13.40;97.70
3190;DHT22;1606;51.946;10.558;2023-02-15T15:51:17;13.30;97.80
3190;DHT22;1606;51.946;10.558;2023-02-15T15:53:49;13.30;98.00
3190;DHT22;1606;51.946;10.558;2023-02-15T15:56:22;13.20;98.60
3190;DHT22;1606;51.946;10.558;2023-02-15T15:58:55;13.00;98.80
3190;DHT22;1606;51.946;10.558;2023-02-15T16:01:28;13.00;98.70
3190;DHT22;1606;51.946;10.558;2023-02-15T16:03:57;12.90;98.80
3190;DHT22;1606;51.946;10.558;2023-02-15T16:06:30;12.80;98.80
3190;DHT22;1606;51.946;10.558;2023-02-15T16:09:11;12.80;98.80
3190;DHT22;1606;51.946;10.558;2023-02-15T16:11:40;12.70;99.00
3190;DHT22;1606;51.946;10.558;2023-02-15T16:14:13;12.60;99.30
3190;DHT22;1606;51.946;10.558;2023-02-15T16:16:50;12.50;99.60
3190;DHT22;1606;51.946;10.558;2023-02-15T16:19:22;12.40;99.80
3190;DHT22;1606;51.946;10.558;2023-02-15T16:21:51;12.50;99.90
3190;DHT22;1606;51.946;10.558;2023-02-15T16:24:30;12.40;99.90
3190;DHT22;1606;51.946;10.558;2023-02-15T16:29:57;12.10;99.90
3190;DHT22;1606;51.946;10.558;2023-02-15T16:32:26;11.90;99.90
3190;DHT22;1606;51.946;10.558;2023-02-15T16:34:56;11.70;99.90
3190;DHT22;1606;51.946;10.558;2023-02-15T16:37:25;11.50;99.90
3190;DHT22;1606;51.946;10.558;2023-02-15T16:39:55;11.20;99.90
3190;DHT22;1606;51.946;10.558;2023-02-15T16:42:23;11.00;99.90
3190;DHT22;1606;51.946;10.558;2023-02-15T16:44:54;10.90;99.90
3190;DHT22;1606;51.946;10.558;2023-02-15T16:47:25;10.90;99.90
3190;DHT22;1606;51.946;10.558;2023-02-15T16:49:55;10.80;99.90
3190;DHT22;1606;51.946;10.558;2023-02-15T16:52:26;10.60;99.90
3190;DHT22;1606;51.946;10.558;2023-02-15T16:54:58;10.50;99.90
3190;DHT22;1606;51.946;10.558;2023-02-15T16:57:29;10.50;99.90